createdAt,value
2022-12-29T00:00:13.543Z,97365.06
2022-12-29T00:02:42.085Z,97373.94
2022-12-29T00:05:09.858Z,97372.69
2022-12-29T00:07:37.135Z,97365.28
2022-12-29T00:10:05.287Z,97365.47
2022-12-29T00:12:52.591Z,97368.34
2022-12-29T00:15:38.176Z,97369.84
2022-12-29T00:18:06.453Z,97371.44
2022-12-29T00:20:57.321Z,97356.31
2022-12-29T00:23:43.867Z,97360.28
2022-12-29T00:26:35.972Z,97351.09
2022-12-29T00:29:21.890Z,97343.41
2022-12-29T00:32:08.041Z,97341.53
2022-12-29T00:34:53.824Z,97331.59
2022-12-29T00:37:41.354Z,97335.97
2022-12-29T00:40:32.289Z,97325.47
2022-12-29T00:43:22.633Z,97317.72
2022-12-29T00:45:50.005Z,97324.31
2022-12-29T00:48:37.208Z,97316.78
2022-12-29T00:51:04.839Z,97314.69
2022-12-29T00:53:32.100Z,97315.28
2022-12-29T00:55:59.722Z,97315.56
2022-12-29T00:58:31.320Z,97328.75
2022-12-29T01:01:09.835Z,97320.69
2022-12-29T01:03:39.088Z,97327.78
2022-12-29T01:06:09.055Z,97332.13
2022-12-29T01:08:38.635Z,97324.69
2022-12-29T01:11:10.500Z,97322.56
2022-12-29T01:13:43.537Z,97323.97
2022-12-29T01:16:12.249Z,97326.50
2022-12-29T01:18:39.482Z,97328.66
2022-12-29T01:21:07.923Z,97331.28
2022-12-29T01:23:35.356Z,97335.59
2022-12-29T01:26:17.612Z,97333.00
2022-12-29T01:28:45.988Z,97336.41
2022-12-29T01:31:15.615Z,97341.09
2022-12-29T01:33:44.111Z,97344.06
2022-12-29T01:36:16.378Z,97336.91
2022-12-29T01:38:45.189Z,97341.00
2022-12-29T01:41:15.312Z,97340.88
2022-12-29T01:43:58.647Z,97338.91
2022-12-29T01:46:39.890Z,97332.44
2022-12-29T01:49:30.373Z,97324.16
2022-12-29T01:52:09.044Z,97320.06
2022-12-29T01:54:49.036Z,97317.13
2022-12-29T01:57:22.749Z,97315.19
2022-12-29T02:00:01.408Z,97318.47
2022-12-29T02:02:32.628Z,97312.91
2022-12-29T02:05:08.532Z,97305.75
2022-12-29T02:07:36.402Z,97298.22
2022-12-29T02:10:04.665Z,97296.97
2022-12-29T02:12:31.980Z,97288.91
2022-12-29T02:15:03.092Z,97293.78
2022-12-29T02:17:54.252Z,97289.47
2022-12-29T02:21:00.200Z,97290.34
2022-12-29T02:24:10.278Z,97289.59
2022-12-29T02:27:27.909Z,97288.13
2022-12-29T02:30:38.158Z,97280.72
2022-12-29T02:33:17.106Z,97280.94
2022-12-29T02:35:57.132Z,97288.22
2022-12-29T02:38:42.138Z,97291.84
2022-12-29T02:41:22.664Z,97289.69
2022-12-29T02:44:40.595Z,97280.94
2022-12-29T02:47:30.866Z,97274.91
2022-12-29T02:50:24.412Z,97267.63
2022-12-29T02:53:07.818Z,97271.00
2022-12-29T02:55:35.788Z,97268.22
2022-12-29T02:58:22.718Z,97260.25
2022-12-29T03:01:10.388Z,97258.13
2022-12-29T03:04:13.331Z,97263.22
2022-12-29T03:06:55.646Z,97247.50
2022-12-29T03:09:54.493Z,97246.22
2022-12-29T03:13:13.690Z,97239.97
2022-12-29T03:16:22.459Z,97256.63
2022-12-29T03:19:19.229Z,97248.94
2022-12-29T03:22:20.438Z,97255.94
2022-12-29T03:25:09.289Z,97257.16
2022-12-29T03:27:50.834Z,97260.94
2022-12-29T03:30:20.254Z,97248.16
2022-12-29T03:32:59.671Z,97222.72
2022-12-29T03:35:34.231Z,97236.88
2022-12-29T03:38:14.826Z,97244.28
2022-12-29T03:40:48.651Z,97249.88
2022-12-29T03:43:18.246Z,97242.72
2022-12-29T03:45:47.057Z,97266.03
2022-12-29T03:48:14.526Z,97252.97
2022-12-29T03:50:42.540Z,97251.63
2022-12-29T03:53:10.082Z,97265.53
2022-12-29T03:55:39.622Z,97262.06
2022-12-29T03:58:07.049Z,97260.09
2022-12-29T04:00:49.246Z,97264.91
2022-12-29T04:03:16.778Z,97271.91
2022-12-29T04:05:45.787Z,97267.28
2022-12-29T04:08:13.184Z,97258.50
2022-12-29T04:10:40.910Z,97266.38
2022-12-29T04:13:08.250Z,97266.38
2022-12-29T04:15:35.713Z,97260.47
2022-12-29T04:18:03.251Z,97255.00
2022-12-29T04:20:49.239Z,97256.09
2022-12-29T04:23:16.847Z,97251.00
2022-12-29T04:25:49.535Z,97246.34
2022-12-29T04:28:18.174Z,97246.50
2022-12-29T04:31:04.465Z,97247.56
2022-12-29T04:33:37.135Z,97235.44
2022-12-29T04:36:05.106Z,97240.56
2022-12-29T04:38:33.103Z,97229.44
2022-12-29T04:41:03.903Z,97239.81
2022-12-29T04:43:31.592Z,97228.38
2022-12-29T04:46:19.235Z,97229.50
2022-12-29T04:48:58.005Z,97228.25
2022-12-29T04:51:46.304Z,97231.75
2022-12-29T04:54:15.303Z,97229.31
2022-12-29T04:56:44.892Z,97238.41
2022-12-29T04:59:15.009Z,97244.09
2022-12-29T05:01:44.313Z,97232.94
2022-12-29T05:04:11.688Z,97230.91
2022-12-29T05:06:39.137Z,97229.06
2022-12-29T05:09:06.905Z,97218.72
2022-12-29T05:11:36.161Z,97231.09
2022-12-29T05:14:03.700Z,97224.06
2022-12-29T05:16:31.211Z,97229.84
2022-12-29T05:18:58.763Z,97229.94
2022-12-29T05:21:26.118Z,97224.56
2022-12-29T05:23:53.415Z,97220.28
2022-12-29T05:26:20.822Z,97221.41
2022-12-29T05:29:11.336Z,97223.50
2022-12-29T05:31:38.963Z,97221.28
2022-12-29T05:34:07.256Z,97225.22
2022-12-29T05:36:37.958Z,97218.66
2022-12-29T05:39:08.681Z,97220.66
2022-12-29T05:41:36.807Z,97216.69
2022-12-29T05:44:23.586Z,97221.97
2022-12-29T05:47:11.199Z,97215.00
2022-12-29T05:50:08.422Z,97213.28
2022-12-29T05:52:54.427Z,97215.97
2022-12-29T05:55:22.185Z,97209.91
2022-12-29T05:57:52.075Z,97217.00
2022-12-29T06:00:19.740Z,97220.81
2022-12-29T06:02:48.231Z,97209.91
2022-12-29T06:05:17.599Z,97217.69
2022-12-29T06:07:46.425Z,97222.94
2022-12-29T06:10:16.333Z,97225.56
2022-12-29T06:12:48.222Z,97224.28
2022-12-29T06:15:16.333Z,97221.56
2022-12-29T06:17:47.015Z,97223.97
2022-12-29T06:20:14.499Z,97222.47
2022-12-29T06:22:41.919Z,97222.88
2022-12-29T06:25:09.952Z,97224.88
2022-12-29T06:27:37.535Z,97228.25
2022-12-29T06:30:06.270Z,97218.28
2022-12-29T06:32:33.692Z,97218.56
2022-12-29T06:35:07.071Z,97218.72
2022-12-29T06:37:38.250Z,97220.56
2022-12-29T06:40:06.473Z,97218.31
2022-12-29T06:42:49.789Z,97211.78
2022-12-29T06:45:33.790Z,97214.72
2022-12-29T06:48:01.407Z,97212.41
2022-12-29T06:50:28.908Z,97207.72
2022-12-29T06:52:56.209Z,97207.50
2022-12-29T06:55:23.636Z,97201.56
2022-12-29T06:57:50.997Z,97201.78
2022-12-29T07:00:22.781Z,97199.09
2022-12-29T07:02:51.449Z,97201.03
2022-12-29T07:05:18.752Z,97201.28
2022-12-29T07:07:46.095Z,97194.25
2022-12-29T07:10:13.343Z,97204.44
2022-12-29T07:12:40.683Z,97188.78
2022-12-29T07:15:08.901Z,97188.56
2022-12-29T07:17:36.254Z,97195.88
2022-12-29T07:20:03.966Z,97198.81
2022-12-29T07:22:31.379Z,97205.63
2022-12-29T07:24:58.856Z,97198.88
2022-12-29T07:27:26.258Z,97199.03
2022-12-29T07:29:53.605Z,97210.47
2022-12-29T07:32:20.909Z,97216.28
2022-12-29T07:34:48.560Z,97220.91
2022-12-29T07:37:19.562Z,97222.84
2022-12-29T07:39:46.864Z,97225.88
2022-12-29T07:42:14.136Z,97225.47
2022-12-29T07:44:43.962Z,97234.16
2022-12-29T07:47:19.418Z,97228.53
2022-12-29T07:49:46.667Z,97237.97
2022-12-29T07:52:13.999Z,97229.38
2022-12-29T07:54:41.267Z,97231.66
2022-12-29T07:57:08.692Z,97237.16
2022-12-29T07:59:36.153Z,97235.28
2022-12-29T08:02:04.042Z,97240.00
2022-12-29T08:04:31.498Z,97235.88
2022-12-29T08:06:58.746Z,97230.44
2022-12-29T08:09:26.015Z,97234.09
2022-12-29T08:11:54.515Z,97234.66
2022-12-29T08:14:22.006Z,97226.03
2022-12-29T08:16:49.311Z,97217.06
2022-12-29T08:19:16.565Z,97219.63
2022-12-29T08:21:43.962Z,97225.31
2022-12-29T08:24:11.506Z,97210.09
2022-12-29T08:26:38.989Z,97211.50
2022-12-29T08:29:06.363Z,97215.09
2022-12-29T08:31:33.650Z,97218.91
2022-12-29T08:34:02.553Z,97225.25
2022-12-29T08:36:30.904Z,97220.00
2022-12-29T08:38:58.326Z,97221.75
2022-12-29T08:41:25.588Z,97217.06
2022-12-29T08:43:53.463Z,97218.41
2022-12-29T08:46:20.827Z,97221.66
2022-12-29T08:48:48.129Z,97213.38
2022-12-29T08:51:18.219Z,97212.88
2022-12-29T08:53:48.796Z,97206.22
2022-12-29T08:56:17.236Z,97208.22
2022-12-29T08:58:50.285Z,97195.25
2022-12-29T09:01:19.587Z,97210.31
2022-12-29T09:06:39.885Z,97209.31
2022-12-29T09:09:08.119Z,97200.06
2022-12-29T09:11:35.563Z,97198.78
2022-12-29T09:14:02.884Z,97187.00
2022-12-29T09:16:30.266Z,97178.91
2022-12-29T09:18:57.634Z,97178.97
2022-12-29T09:21:25.018Z,97175.84
2022-12-29T09:23:52.525Z,97177.75
2022-12-29T09:26:19.903Z,97176.44
2022-12-29T09:28:48.219Z,97184.66
2022-12-29T09:31:15.807Z,97176.75
2022-12-29T09:33:43.126Z,97173.78
2022-12-29T09:36:10.597Z,97173.03
2022-12-29T09:38:37.799Z,97177.94
2022-12-29T09:41:26.019Z,97182.59
2022-12-29T09:44:08.416Z,97177.75
2022-12-29T09:46:49.021Z,97175.09
2022-12-29T09:49:44.398Z,97172.41
2022-12-29T09:52:16.165Z,97182.72
2022-12-29T09:55:03.221Z,97173.63
2022-12-29T09:58:03.122Z,97185.03
2022-12-29T10:01:04.736Z,97187.97
2022-12-29T10:03:55.816Z,97201.28
2022-12-29T10:10:21.389Z,97205.16
2022-12-29T10:13:10.545Z,97202.84
2022-12-29T10:15:58.832Z,97210.97
2022-12-29T10:18:36.584Z,97204.81
2022-12-29T10:21:32.693Z,97206.28
2022-12-29T10:24:03.023Z,97203.38
2022-12-29T10:26:39.868Z,97201.16
2022-12-29T10:29:20.024Z,97202.72
2022-12-29T10:32:14.693Z,97194.19
2022-12-29T10:34:52.663Z,97190.50
2022-12-29T10:37:48.867Z,97195.50
2022-12-29T10:40:34.102Z,97186.56
2022-12-29T10:43:03.576Z,97180.13
2022-12-29T10:45:35.073Z,97167.28
2022-12-29T10:48:27.139Z,97176.34
2022-12-29T10:51:02.676Z,97167.16
2022-12-29T10:54:01.539Z,97167.66
2022-12-29T10:56:38.470Z,97175.59
2022-12-29T10:59:25.243Z,97178.69
2022-12-29T11:02:13.208Z,97178.94
2022-12-29T11:05:17.705Z,97187.69
2022-12-29T11:07:48.033Z,97176.88
2022-12-29T11:10:44.480Z,97168.56
2022-12-29T11:13:38.639Z,97175.50
2022-12-29T11:16:07.064Z,97174.72
2022-12-29T11:18:39.342Z,97165.88
2022-12-29T11:21:43.020Z,97169.19
2022-12-29T11:24:26.079Z,97178.69
2022-12-29T11:26:59.712Z,97178.47
2022-12-29T11:29:30.297Z,97175.28
2022-12-29T11:32:00.255Z,97181.72
2022-12-29T11:34:37.316Z,97174.91
2022-12-29T11:37:39.548Z,97172.16
2022-12-29T11:40:11.581Z,97170.75
2022-12-29T11:42:47.944Z,97171.72
2022-12-29T11:45:24.533Z,97166.63
2022-12-29T11:48:09.084Z,97163.94
2022-12-29T11:50:42.982Z,97162.34
2022-12-29T11:53:33.261Z,97163.53
2022-12-29T11:56:09.380Z,97164.50
2022-12-29T11:58:39.657Z,97171.13
2022-12-29T12:04:19.728Z,97170.31
2022-12-29T12:07:29.790Z,97162.03
2022-12-29T12:10:09.831Z,97171.22
2022-12-29T12:12:54.919Z,97171.13
2022-12-29T12:15:32.765Z,97173.09
2022-12-29T12:18:28.926Z,97183.44
2022-12-29T12:21:05.810Z,97180.81
2022-12-29T12:23:52.834Z,97182.25
2022-12-29T12:26:29.725Z,97182.50
2022-12-29T12:29:23.666Z,97168.84
2022-12-29T12:32:10.650Z,97172.19
2022-12-29T12:34:43.972Z,97169.31
2022-12-29T12:37:30.932Z,97170.19
2022-12-29T12:40:46.241Z,97178.19
2022-12-29T12:43:32.582Z,97170.47
2022-12-29T12:46:28.947Z,97169.06
2022-12-29T12:49:38.580Z,97166.03
2022-12-29T12:52:32.984Z,97167.47
2022-12-29T12:55:56.218Z,97160.00
2022-12-29T12:59:14.069Z,97146.00
2022-12-29T13:02:31.143Z,97132.16
2022-12-29T13:05:31.582Z,97143.81
2022-12-29T13:08:44.833Z,97156.13
2022-12-29T13:11:40.982Z,97154.78
2022-12-29T13:14:35.395Z,97151.25
2022-12-29T13:17:23.342Z,97142.22
2022-12-29T13:20:12.883Z,97140.75
2022-12-29T13:23:03.442Z,97143.69
2022-12-29T13:26:01.489Z,97153.75
2022-12-29T13:28:39.956Z,97146.41
2022-12-29T13:31:29.825Z,97155.84
2022-12-29T13:34:30.813Z,97143.69
2022-12-29T13:37:05.246Z,97140.97
2022-12-29T13:39:38.947Z,97143.56
2022-12-29T13:42:07.749Z,97136.44
2022-12-29T13:45:00.510Z,97128.25
2022-12-29T13:47:38.795Z,97121.44
2022-12-29T13:50:19.413Z,97123.78
2022-12-29T13:53:20.306Z,97117.53
2022-12-29T13:55:53.247Z,97116.97
2022-12-29T13:58:36.067Z,97128.06
2022-12-29T14:01:52.175Z,97124.25
2022-12-29T14:04:27.264Z,97118.13
2022-12-29T14:07:13.889Z,97122.66
2022-12-29T14:09:57.603Z,97111.03
2022-12-29T14:12:44.875Z,97116.31
2022-12-29T14:15:12.093Z,97115.22
2022-12-29T14:17:45.642Z,97124.47
2022-12-29T14:20:24.324Z,97110.97
2022-12-29T14:23:43.440Z,97110.38
2022-12-29T14:26:33.413Z,97109.03
2022-12-29T14:29:41.543Z,97109.81
2022-12-29T14:32:26.996Z,97106.22
2022-12-29T14:34:57.182Z,97110.66
2022-12-29T14:37:32.917Z,97119.69
2022-12-29T14:40:07.821Z,97115.13
2022-12-29T14:42:35.330Z,97111.69
2022-12-29T14:45:14.461Z,97115.28
2022-12-29T14:47:49.580Z,97113.25
2022-12-29T14:50:22.054Z,97113.78
2022-12-29T14:53:03.662Z,97109.94
2022-12-29T14:55:55.260Z,97107.50
2022-12-29T14:58:35.720Z,97116.53
2022-12-29T15:01:03.563Z,97113.25
2022-12-29T15:03:37.439Z,97106.22
2022-12-29T15:06:12.579Z,97103.69
2022-12-29T15:09:11.889Z,97112.91
2022-12-29T15:11:48.565Z,97108.38
2022-12-29T15:14:52.575Z,97110.75
2022-12-29T15:17:35.425Z,97112.09
2022-12-29T15:20:23.370Z,97109.00
2022-12-29T15:23:10.611Z,97108.53
2022-12-29T15:25:38.080Z,97116.34
2022-12-29T15:28:07.785Z,97118.78
2022-12-29T15:30:36.027Z,97109.84
2022-12-29T15:33:04.005Z,97102.91
2022-12-29T15:35:36.559Z,97110.78
2022-12-29T15:38:32.178Z,97107.13
2022-12-29T15:41:15.312Z,97106.81
2022-12-29T15:44:00.102Z,97121.78
2022-12-29T15:46:31.271Z,97122.03
2022-12-29T15:48:59.256Z,97110.19
2022-12-29T15:51:38.470Z,97110.19
2022-12-29T15:54:06.096Z,97105.84
2022-12-29T15:56:34.332Z,97118.59
2022-12-29T15:59:02.915Z,97119.16
2022-12-29T16:01:37.791Z,97117.31
2022-12-29T16:04:10.073Z,97120.38
2022-12-29T16:06:54.956Z,97111.72
2022-12-29T16:09:45.548Z,97115.16
2022-12-29T16:12:35.295Z,97108.09
2022-12-29T16:15:13.557Z,97110.06
2022-12-29T16:17:54.501Z,97115.38
2022-12-29T16:20:29.934Z,97116.50
2022-12-29T16:23:00.709Z,97127.34
2022-12-29T16:25:38.376Z,97118.72
2022-12-29T16:28:24.345Z,97120.88
2022-12-29T16:31:06.972Z,97120.63
2022-12-29T16:33:55.863Z,97129.66
2022-12-29T16:36:30.913Z,97130.38
2022-12-29T16:39:24.968Z,97139.06
2022-12-29T16:41:53.490Z,97146.06
2022-12-29T16:44:25.675Z,97143.19
2022-12-29T16:47:08.422Z,97140.47
2022-12-29T16:49:38.753Z,97137.84
2022-12-29T16:52:35.690Z,97139.78
2022-12-29T16:55:03.634Z,97140.22
2022-12-29T16:57:37.452Z,97141.50
2022-12-29T17:00:08.828Z,97137.03
2022-12-29T17:02:46.081Z,97135.75
2022-12-29T17:05:19.139Z,97145.81
2022-12-29T17:07:47.686Z,97137.34
2022-12-29T17:10:16.433Z,97129.03
2022-12-29T17:12:46.914Z,97120.69
2022-12-29T17:15:33.263Z,97134.53
2022-12-29T17:18:01.446Z,97133.88
2022-12-29T17:20:31.631Z,97138.38
2022-12-29T17:23:00.429Z,97144.59
2022-12-29T17:25:38.644Z,97154.09
2022-12-29T17:28:23.961Z,97160.88
2022-12-29T17:31:03.075Z,97163.56
2022-12-29T17:33:38.438Z,97161.16
2022-12-29T17:36:06.035Z,97159.97
2022-12-29T17:38:37.568Z,97160.09
2022-12-29T17:41:05.017Z,97165.53
2022-12-29T17:43:37.078Z,97156.44
2022-12-29T17:46:08.202Z,97154.44
2022-12-29T17:48:35.880Z,97143.28
2022-12-29T17:51:03.505Z,97138.44
2022-12-29T17:53:31.517Z,97138.13
2022-12-29T17:55:59.072Z,97139.47
2022-12-29T17:58:29.114Z,97138.69
2022-12-29T18:01:02.576Z,97128.56
2022-12-29T18:03:33.189Z,97129.72
2022-12-29T18:06:00.763Z,97116.28
2022-12-29T18:08:30.876Z,97121.53
2022-12-29T18:10:58.687Z,97116.81
2022-12-29T18:13:43.582Z,97123.25
2022-12-29T18:16:14.827Z,97120.84
2022-12-29T18:18:42.181Z,97116.66
2022-12-29T18:21:27.998Z,97118.00
2022-12-29T18:23:55.783Z,97115.72
2022-12-29T18:26:31.654Z,97120.56
2022-12-29T18:28:59.874Z,97118.59
2022-12-29T18:31:33.952Z,97117.63
2022-12-29T18:34:07.629Z,97116.72
2022-12-29T18:36:34.995Z,97117.50
2022-12-29T18:39:02.319Z,97115.44
2022-12-29T18:41:30.294Z,97122.22
2022-12-29T18:43:59.572Z,97108.53
2022-12-29T18:46:27.338Z,97101.09
2022-12-29T18:48:55.056Z,97113.06
2022-12-29T18:51:24.727Z,97127.81
2022-12-29T18:53:54.383Z,97139.66
2022-12-29T18:56:23.725Z,97138.59
2022-12-29T18:58:51.618Z,97147.97
2022-12-29T19:01:26.077Z,97156.19
2022-12-29T19:03:54.338Z,97160.09
2022-12-29T19:06:22.253Z,97150.94
2022-12-29T19:08:49.751Z,97155.56
2022-12-29T19:11:17.972Z,97156.94
2022-12-29T19:13:45.449Z,97153.34
2022-12-29T19:16:21.752Z,97155.28
2022-12-29T19:19:05.745Z,97155.44
2022-12-29T19:21:35.034Z,97161.28
2022-12-29T19:24:02.260Z,97153.66
2022-12-29T19:26:36.976Z,97153.19
2022-12-29T19:29:06.473Z,97154.69
2022-12-29T19:31:34.411Z,97151.91
2022-12-29T19:34:03.472Z,97147.94
2022-12-29T19:36:31.087Z,97155.56
2022-12-29T19:38:58.733Z,97165.47
2022-12-29T19:41:26.079Z,97169.94
2022-12-29T19:43:53.503Z,97165.53
2022-12-29T19:46:21.298Z,97175.75
2022-12-29T19:48:48.728Z,97178.00
2022-12-29T19:51:17.331Z,97183.69
2022-12-29T19:53:46.432Z,97177.19
2022-12-29T19:56:14.877Z,97164.72
2022-12-29T19:58:46.837Z,97164.97
2022-12-29T20:01:23.785Z,97169.09
2022-12-29T20:03:51.864Z,97162.50
2022-12-29T20:06:20.537Z,97173.88
2022-12-29T20:08:48.239Z,97165.34
2022-12-29T20:11:18.511Z,97161.59
2022-12-29T20:13:47.151Z,97159.28
2022-12-29T20:16:19.902Z,97159.13
2022-12-29T20:18:49.024Z,97156.44
2022-12-29T20:21:21.041Z,97152.31
2022-12-29T20:23:49.461Z,97154.47
2022-12-29T20:26:22.065Z,97145.03
2022-12-29T20:28:50.419Z,97148.19
2022-12-29T20:31:31.880Z,97148.56
2022-12-29T20:33:59.655Z,97152.78
2022-12-29T20:36:31.958Z,97146.59
2022-12-29T20:39:03.955Z,97145.31
2022-12-29T20:41:31.325Z,97149.53
2022-12-29T20:44:01.043Z,97152.16
2022-12-29T20:46:35.356Z,97149.72
2022-12-29T20:49:08.993Z,97152.22
2022-12-29T20:52:04.587Z,97148.28
2022-12-29T20:54:24.848Z,97157.78
2022-12-29T20:56:52.641Z,97163.03
2022-12-29T20:59:28.661Z,97163.22
2022-12-29T21:01:57.983Z,97163.59
2022-12-29T21:04:26.460Z,97167.13
2022-12-29T21:06:54.468Z,97160.38
2022-12-29T21:09:22.123Z,97165.53
2022-12-29T21:11:49.496Z,97160.34
2022-12-29T21:14:16.974Z,97173.22
2022-12-29T21:16:44.398Z,97165.81
2022-12-29T21:19:11.792Z,97162.56
2022-12-29T21:21:39.170Z,97157.31
2022-12-29T21:24:07.828Z,97171.19
2022-12-29T21:26:35.813Z,97162.66
2022-12-29T21:29:03.909Z,97162.09
2022-12-29T21:31:37.101Z,97157.75
2022-12-29T21:34:06.217Z,97160.31
2022-12-29T21:36:34.425Z,97173.19
2022-12-29T21:39:03.711Z,97169.00
2022-12-29T21:41:32.061Z,97171.91
2022-12-29T21:44:18.709Z,97176.47
2022-12-29T21:46:47.874Z,97174.38
2022-12-29T21:49:16.418Z,97168.44
2022-12-29T21:51:57.660Z,97166.72
2022-12-29T21:54:46.779Z,97163.84
2022-12-29T21:57:37.370Z,97171.00
2022-12-29T22:00:27.222Z,97161.66
2022-12-29T22:03:22.077Z,97164.41
2022-12-29T22:06:11.000Z,97161.88
2022-12-29T22:08:57.932Z,97165.38
2022-12-29T22:11:43.989Z,97165.75
2022-12-29T22:14:11.456Z,97173.47
2022-12-29T22:16:38.797Z,97171.41
2022-12-29T22:19:08.016Z,97159.94
2022-12-29T22:21:35.468Z,97162.47
2022-12-29T22:24:03.002Z,97153.34
2022-12-29T22:26:30.239Z,97153.97
2022-12-29T22:28:57.826Z,97152.31
2022-12-29T22:31:30.362Z,97158.44
2022-12-29T22:34:01.240Z,97157.44
2022-12-29T22:36:28.917Z,97165.00
2022-12-29T22:38:56.241Z,97158.78
2022-12-29T22:41:24.618Z,97157.56
2022-12-29T22:43:51.981Z,97157.19
2022-12-29T22:46:19.850Z,97160.09
2022-12-29T22:48:47.527Z,97159.47
2022-12-29T22:51:14.790Z,97158.22
2022-12-29T22:53:42.183Z,97155.41
2022-12-29T22:56:12.776Z,97157.94
2022-12-29T22:58:44.944Z,97143.28
2022-12-29T23:01:15.986Z,97153.72
2022-12-29T23:03:44.365Z,97152.88
2022-12-29T23:06:14.166Z,97155.22
2022-12-29T23:08:42.074Z,97152.09
2022-12-29T23:11:12.459Z,97159.72
2022-12-29T23:13:41.753Z,97152.69
2022-12-29T23:16:09.223Z,97153.63
2022-12-29T23:18:37.487Z,97148.16
2022-12-29T23:21:05.125Z,97138.59
2022-12-29T23:23:50.960Z,97136.41
2022-12-29T23:26:24.326Z,97142.63
2022-12-29T23:28:56.283Z,97139.03
2022-12-29T23:31:28.540Z,97141.19
2022-12-29T23:33:56.473Z,97141.31
2022-12-29T23:36:24.113Z,97138.13
2022-12-29T23:38:51.642Z,97139.88
2022-12-29T23:41:18.889Z,97140.25
2022-12-29T23:43:46.829Z,97131.00
2022-12-29T23:46:24.548Z,97129.69
2022-12-29T23:48:51.924Z,97131.88
2022-12-29T23:51:19.738Z,97135.09
2022-12-29T23:53:47.856Z,97143.38
2022-12-29T23:56:19.078Z,97135.53
2022-12-29T23:58:46.674Z,97133.09
